createdAt,value
2023-05-06T00:02:11.115Z,9.55
2023-05-06T00:04:38.806Z,9.27
2023-05-06T00:07:15.178Z,8.85
2023-05-06T00:09:42.532Z,8.80
2023-05-06T00:12:16.126Z,8.75
2023-05-06T00:14:46.186Z,8.27
2023-05-06T00:17:20.139Z,9.13
2023-05-06T00:19:56.106Z,8.73
2023-05-06T00:22:25.912Z,9.00
2023-05-06T00:24:59.134Z,9.85
2023-05-06T00:27:26.800Z,9.35
2023-05-06T00:30:00.221Z,9.40
2023-05-06T00:32:34.240Z,8.18
2023-05-06T00:35:08.422Z,8.75
2023-05-06T00:37:35.759Z,8.38
2023-05-06T00:40:10.238Z,9.40
2023-05-06T00:42:37.486Z,9.60
2023-05-06T00:45:12.371Z,9.43
2023-05-06T00:47:47.195Z,8.50
2023-05-06T00:50:14.711Z,9.63
2023-05-06T00:52:48.186Z,8.60
2023-05-06T00:55:18.911Z,9.02
2023-05-06T00:57:53.183Z,10.10
2023-05-06T01:00:23.618Z,9.77
2023-05-06T01:02:57.494Z,10.15
2023-05-06T01:05:32.256Z,10.30
2023-05-06T01:08:37.163Z,9.73
2023-05-06T01:11:16.837Z,10.38
2023-05-06T01:14:06.283Z,9.20
2023-05-06T01:16:36.773Z,9.50
2023-05-06T01:19:16.154Z,9.32
2023-05-06T01:21:53.229Z,9.85
2023-05-06T01:24:30.196Z,9.07
2023-05-06T01:27:00.223Z,10.35
2023-05-06T01:29:35.070Z,10.63
2023-05-06T01:32:26.285Z,9.65
2023-05-06T01:35:23.867Z,9.38
2023-05-06T01:38:19.133Z,9.55
2023-05-06T01:41:01.238Z,8.88
2023-05-06T01:43:40.228Z,8.65
2023-05-06T01:46:18.397Z,9.43
2023-05-06T01:48:47.659Z,9.40
2023-05-06T01:51:24.221Z,11.60
2023-05-06T01:53:58.170Z,9.10
2023-05-06T01:56:27.402Z,9.93
2023-05-06T01:59:03.210Z,8.60
2023-05-06T02:01:31.066Z,9.00
2023-05-06T02:04:08.267Z,9.60
2023-05-06T02:06:44.179Z,9.40
2023-05-06T02:09:21.323Z,10.07
2023-05-06T02:11:55.351Z,9.10
2023-05-06T02:14:25.534Z,8.88
2023-05-06T02:17:02.192Z,7.80
2023-05-06T02:19:39.190Z,7.90
2023-05-06T02:22:06.724Z,8.88
2023-05-06T02:24:34.160Z,8.05
2023-05-06T02:27:09.201Z,8.48
2023-05-06T02:29:43.246Z,8.70
2023-05-06T02:32:18.227Z,8.70
2023-05-06T02:34:53.513Z,8.90
2023-05-06T02:37:27.204Z,9.95
2023-05-06T02:39:54.255Z,9.45
2023-05-06T02:42:28.352Z,9.73
2023-05-06T02:44:58.186Z,9.82
2023-05-06T02:47:35.210Z,9.70
2023-05-06T02:50:09.276Z,10.40
2023-05-06T02:52:36.618Z,9.93
2023-05-06T02:55:10.687Z,8.07
2023-05-06T02:57:38.384Z,9.50
2023-05-06T03:00:15.600Z,8.95
2023-05-06T03:02:49.338Z,8.13
2023-05-06T03:05:26.355Z,8.27
2023-05-06T03:08:06.321Z,10.15
2023-05-06T03:10:36.781Z,9.48
2023-05-06T03:13:10.268Z,8.70
2023-05-06T03:15:38.906Z,9.00
2023-05-06T03:18:13.251Z,8.18
2023-05-06T03:23:28.297Z,10.18
2023-05-06T03:26:05.288Z,9.93
2023-05-06T03:28:32.746Z,11.05
2023-05-06T03:31:07.286Z,10.63
2023-05-06T03:33:41.464Z,12.57
2023-05-06T03:36:15.315Z,15.32
2023-05-06T03:38:42.644Z,13.82
2023-05-06T03:41:17.363Z,11.85
2023-05-06T03:43:51.127Z,11.70
2023-05-06T03:46:25.353Z,11.70
2023-05-06T03:48:52.639Z,11.82
2023-05-06T03:51:26.375Z,13.15
2023-05-06T03:53:54.853Z,13.95
2023-05-06T03:56:31.213Z,15.35
2023-05-06T03:58:58.746Z,12.60
2023-05-06T04:01:26.156Z,13.55
2023-05-06T04:04:01.404Z,11.32
2023-05-06T04:06:29.828Z,11.52
2023-05-06T04:09:06.333Z,13.60
2023-05-06T04:11:33.691Z,15.05
2023-05-06T04:14:08.203Z,14.30
2023-05-06T04:16:35.818Z,15.18
2023-05-06T04:19:10.365Z,16.17
2023-05-06T04:21:37.936Z,14.35
2023-05-06T04:24:16.380Z,13.90
2023-05-06T04:26:52.272Z,15.85
2023-05-06T04:29:26.348Z,14.77
2023-05-06T04:32:13.199Z,15.25
2023-05-06T04:34:49.218Z,13.80
2023-05-06T04:37:17.779Z,13.55
2023-05-06T04:39:54.326Z,14.13
2023-05-06T04:42:21.761Z,17.55
2023-05-06T04:44:56.201Z,18.63
2023-05-06T04:47:23.601Z,20.48
2023-05-06T04:50:13.867Z,21.38
2023-05-06T04:52:54.334Z,19.42
2023-05-06T04:55:28.542Z,18.55
2023-05-06T04:57:55.879Z,20.23
2023-05-06T05:00:33.363Z,21.70
2023-05-06T05:03:08.448Z,23.80
2023-05-06T05:05:35.633Z,22.70
2023-05-06T05:08:09.234Z,23.25
2023-05-06T05:10:42.767Z,26.98
2023-05-06T05:13:16.397Z,25.67
2023-05-06T05:15:45.977Z,26.58
2023-05-06T05:18:19.339Z,26.85
2023-05-06T05:21:00.210Z,26.05
2023-05-06T05:23:34.360Z,28.08
2023-05-06T05:26:02.021Z,29.92
2023-05-06T05:28:35.318Z,34.58
2023-05-06T05:31:10.220Z,33.72
2023-05-06T05:33:50.360Z,34.03
2023-05-06T05:36:26.556Z,39.05
2023-05-06T05:38:56.351Z,35.38
2023-05-06T05:41:33.371Z,37.05
2023-05-06T05:44:00.998Z,39.17
2023-05-06T05:46:35.327Z,36.85
2023-05-06T05:49:05.645Z,39.25
2023-05-06T05:51:33.167Z,39.10
2023-05-06T05:54:07.345Z,35.83
2023-05-06T05:56:48.436Z,34.72
2023-05-06T05:59:22.313Z,34.95
2023-05-06T06:02:02.488Z,40.53
2023-05-06T06:04:29.739Z,43.08
2023-05-06T06:07:06.348Z,37.03
2023-05-06T06:09:42.330Z,40.97
2023-05-06T06:12:15.006Z,42.83
2023-05-06T06:14:54.151Z,38.17
2023-05-06T06:17:28.374Z,40.00
2023-05-06T06:20:06.364Z,40.90
2023-05-06T06:22:40.386Z,42.97
2023-05-06T06:25:23.008Z,47.13
2023-05-06T06:27:50.474Z,40.63
2023-05-06T06:30:29.408Z,48.35
2023-05-06T06:33:16.370Z,43.78
2023-05-06T06:35:50.325Z,38.63
2023-05-06T06:38:20.172Z,39.35
2023-05-06T06:40:54.418Z,42.38
2023-05-06T06:43:25.069Z,43.88
2023-05-06T06:46:01.485Z,47.92
2023-05-06T06:48:32.188Z,49.63
2023-05-06T06:51:06.449Z,47.25
2023-05-06T06:53:39.337Z,49.58
2023-05-06T06:56:30.852Z,53.85
2023-05-06T06:59:02.698Z,50.85
2023-05-06T07:01:39.677Z,51.22
2023-05-06T07:04:07.383Z,56.78
2023-05-06T07:06:43.911Z,48.35
2023-05-06T07:09:26.433Z,44.30
2023-05-06T07:12:00.445Z,45.67
2023-05-06T07:14:27.925Z,43.13
2023-05-06T07:17:01.332Z,45.67
2023-05-06T07:19:38.461Z,41.03
2023-05-06T07:22:05.764Z,42.08
2023-05-06T07:24:39.273Z,41.35
2023-05-06T07:27:06.649Z,44.88
2023-05-06T07:29:42.327Z,36.05
2023-05-06T07:32:35.169Z,35.55
2023-05-06T07:35:08.469Z,34.92
2023-05-06T07:37:35.721Z,35.83
2023-05-06T07:40:09.570Z,37.88
2023-05-06T07:42:43.446Z,32.90
2023-05-06T07:45:11.588Z,30.73
2023-05-06T07:47:45.365Z,31.05
2023-05-06T07:50:19.421Z,32.70
2023-05-06T07:52:53.316Z,30.73
2023-05-06T07:55:20.443Z,30.02
2023-05-06T07:57:54.406Z,30.52
2023-05-06T08:00:30.343Z,30.00
2023-05-06T08:03:09.129Z,33.45
2023-05-06T08:05:43.372Z,37.90
2023-05-06T08:08:16.297Z,30.00
2023-05-06T08:10:44.450Z,33.13
2023-05-06T08:13:18.345Z,37.22
2023-05-06T08:15:48.166Z,44.00
2023-05-06T08:18:23.335Z,33.53
2023-05-06T08:20:58.317Z,34.95
2023-05-06T08:23:44.377Z,26.58
2023-05-06T08:26:13.453Z,25.63
2023-05-06T08:28:52.164Z,26.90
2023-05-06T08:31:24.951Z,26.23
2023-05-06T08:34:05.244Z,27.17
2023-05-06T08:36:32.606Z,27.85
2023-05-06T08:39:06.310Z,26.60
2023-05-06T08:41:38.390Z,28.67
2023-05-06T08:44:14.993Z,23.63
2023-05-06T08:46:41.768Z,24.30
2023-05-06T08:49:19.161Z,25.13
2023-05-06T08:51:53.316Z,40.10
2023-05-06T08:54:21.016Z,24.67
2023-05-06T08:57:01.440Z,23.88
2023-05-06T08:59:36.026Z,23.92
2023-05-06T09:02:10.533Z,24.65
2023-05-06T09:04:37.461Z,23.98
2023-05-06T09:07:10.399Z,20.20
2023-05-06T09:09:37.158Z,25.63
2023-05-06T09:12:11.324Z,24.92
2023-05-06T09:14:37.979Z,20.13
2023-05-06T09:17:11.539Z,25.20
2023-05-06T09:19:52.329Z,23.23
2023-05-06T09:22:23.370Z,23.58
2023-05-06T09:25:04.429Z,22.58
2023-05-06T09:27:40.397Z,23.75
2023-05-06T09:30:09.309Z,17.45
2023-05-06T09:32:50.392Z,17.73
2023-05-06T09:35:30.437Z,18.75
2023-05-06T09:37:57.208Z,19.75
2023-05-06T09:40:31.385Z,19.75
2023-05-06T09:42:58.378Z,21.38
2023-05-06T09:45:31.301Z,20.67
2023-05-06T09:48:05.435Z,20.27
2023-05-06T09:50:39.309Z,20.85
2023-05-06T09:53:07.016Z,19.63
2023-05-06T09:55:40.403Z,19.65
2023-05-06T09:58:08.468Z,20.30
2023-05-06T10:00:43.421Z,22.95
2023-05-06T10:03:12.388Z,19.15
2023-05-06T10:05:46.315Z,20.23
2023-05-06T10:08:18.819Z,16.80
2023-05-06T10:10:55.352Z,14.40
2023-05-06T10:13:24.956Z,13.18
2023-05-06T10:15:59.390Z,12.00
2023-05-06T10:18:27.375Z,17.65
2023-05-06T10:21:02.361Z,13.52
2023-05-06T10:23:49.391Z,14.60
2023-05-06T10:26:19.914Z,15.10
2023-05-06T10:28:57.409Z,13.48
2023-05-06T10:31:25.460Z,13.38
2023-05-06T10:34:01.452Z,15.55
2023-05-06T10:36:43.394Z,16.13
2023-05-06T10:39:20.372Z,22.08
2023-05-06T10:41:48.201Z,16.55
2023-05-06T10:44:21.412Z,15.60
2023-05-06T10:47:02.197Z,18.27
2023-05-06T10:49:35.306Z,15.38
2023-05-06T10:52:20.398Z,13.00
2023-05-06T10:54:51.058Z,14.63
2023-05-06T10:57:25.373Z,16.85
2023-05-06T10:59:55.121Z,15.68
2023-05-06T11:02:28.477Z,12.80
2023-05-06T11:05:01.202Z,12.45
2023-05-06T11:07:34.369Z,11.82
2023-05-06T11:10:14.471Z,12.93
2023-05-06T11:12:55.657Z,13.70
2023-05-06T11:15:40.615Z,15.20
2023-05-06T11:18:33.348Z,13.75
2023-05-06T11:21:08.954Z,14.30
2023-05-06T11:23:48.392Z,14.55
2023-05-06T11:26:16.110Z,11.95
2023-05-06T11:28:51.441Z,12.50
2023-05-06T11:31:18.466Z,12.38
2023-05-06T11:34:04.418Z,13.18
2023-05-06T11:36:38.378Z,13.10
2023-05-06T11:39:17.404Z,12.63
2023-05-06T11:41:50.365Z,12.93
2023-05-06T11:44:34.450Z,13.50
2023-05-06T11:47:04.655Z,13.88
2023-05-06T11:49:51.397Z,13.65
2023-05-06T11:52:23.359Z,12.80
2023-05-06T11:54:59.487Z,12.90
2023-05-06T11:57:26.401Z,11.52
2023-05-06T12:00:02.408Z,13.57
2023-05-06T12:02:35.571Z,12.55
2023-05-06T12:05:03.084Z,15.02
2023-05-06T12:07:36.411Z,13.63
2023-05-06T12:10:04.682Z,13.85
2023-05-06T12:12:39.480Z,11.43
2023-05-06T12:15:07.287Z,10.30
2023-05-06T12:17:40.496Z,11.10
2023-05-06T12:20:08.247Z,12.27
2023-05-06T12:22:41.468Z,9.85
2023-05-06T12:25:15.513Z,10.55
2023-05-06T12:27:48.385Z,9.02
2023-05-06T12:30:15.271Z,11.05
2023-05-06T12:33:13.426Z,9.60
2023-05-06T12:35:48.397Z,8.98
2023-05-06T12:38:23.536Z,10.23
2023-05-06T12:40:54.955Z,9.50
2023-05-06T12:43:36.444Z,8.50
2023-05-06T12:46:13.414Z,9.88
2023-05-06T12:48:56.046Z,8.57
2023-05-06T12:51:29.372Z,8.88
2023-05-06T12:53:56.427Z,8.23
2023-05-06T12:56:29.434Z,12.35
2023-05-06T12:59:01.051Z,14.07
2023-05-06T13:01:34.778Z,11.48
2023-05-06T13:04:01.589Z,8.57
2023-05-06T13:06:34.416Z,8.60
2023-05-06T13:09:01.327Z,8.15
2023-05-06T13:11:34.473Z,8.40
2023-05-06T13:14:07.492Z,7.30
2023-05-06T13:16:35.501Z,8.18
2023-05-06T13:19:15.057Z,7.70
2023-05-06T13:21:48.320Z,9.02
2023-05-06T13:24:21.601Z,8.50
2023-05-06T13:26:48.501Z,8.70
2023-05-06T13:29:22.416Z,7.80
2023-05-06T13:31:49.300Z,10.45
2023-05-06T13:34:29.533Z,10.30
2023-05-06T13:36:56.983Z,10.27
2023-05-06T13:39:30.503Z,10.32
2023-05-06T13:41:57.172Z,9.68
2023-05-06T13:44:31.533Z,9.30
2023-05-06T13:46:58.525Z,12.45
2023-05-06T13:49:31.465Z,13.48
2023-05-06T13:51:58.605Z,12.88
2023-05-06T13:54:25.546Z,11.63
2023-05-06T13:56:58.546Z,11.68
2023-05-06T13:59:26.437Z,12.07
2023-05-06T14:02:03.479Z,12.27
2023-05-06T14:04:31.603Z,12.70
2023-05-06T14:07:05.544Z,13.57
2023-05-06T14:09:32.245Z,13.00
2023-05-06T14:12:05.775Z,12.52
2023-05-06T14:14:32.714Z,14.43
2023-05-06T14:17:06.560Z,13.82
2023-05-06T14:19:33.396Z,13.18
2023-05-06T14:22:06.603Z,13.40
2023-05-06T14:24:33.336Z,12.50
2023-05-06T14:27:06.471Z,14.07
2023-05-06T14:29:39.463Z,11.75
2023-05-06T14:32:06.571Z,12.90
2023-05-06T14:34:53.579Z,12.18
2023-05-06T14:37:21.082Z,11.07
2023-05-06T14:39:54.507Z,11.23
2023-05-06T14:42:21.370Z,10.85
2023-05-06T14:44:57.478Z,9.93
2023-05-06T14:47:24.519Z,10.38
2023-05-06T14:49:57.532Z,10.38
2023-05-06T14:52:24.454Z,9.07
2023-05-06T14:54:57.616Z,7.45
2023-05-06T14:57:24.532Z,6.30
2023-05-06T14:59:58.530Z,5.55
2023-05-06T15:02:25.432Z,6.13
2023-05-06T15:04:52.351Z,5.82
2023-05-06T15:07:25.537Z,5.40
2023-05-06T15:09:52.661Z,5.50
2023-05-06T15:12:27.580Z,5.60
2023-05-06T15:15:01.491Z,5.85
2023-05-06T15:17:34.646Z,5.78
2023-05-06T15:20:01.752Z,6.10
2023-05-06T15:22:36.718Z,5.28
2023-05-06T15:25:22.455Z,5.88
2023-05-06T15:27:53.329Z,5.65
2023-05-06T15:30:26.603Z,5.78
2023-05-06T15:32:53.474Z,5.72
2023-05-06T15:35:33.648Z,6.18
2023-05-06T15:38:02.677Z,6.05
2023-05-06T15:40:36.574Z,6.13
2023-05-06T15:43:13.834Z,6.43
2023-05-06T15:45:51.726Z,6.30
2023-05-06T15:48:18.827Z,6.05
2023-05-06T15:50:52.632Z,5.85
2023-05-06T15:53:25.636Z,5.60
2023-05-06T15:55:57.189Z,6.03
2023-05-06T15:58:37.634Z,5.55
2023-05-06T16:01:12.423Z,5.65
2023-05-06T16:03:41.521Z,5.72
2023-05-06T16:06:10.035Z,5.28
2023-05-06T16:08:44.492Z,5.57
2023-05-06T16:11:17.589Z,5.25
2023-05-06T16:13:51.704Z,4.68
2023-05-06T16:16:18.663Z,5.47
2023-05-06T16:18:51.530Z,4.82
2023-05-06T16:21:18.362Z,6.35
2023-05-06T16:23:51.692Z,7.65
2023-05-06T16:26:24.576Z,5.75
2023-05-06T16:28:57.587Z,6.93
2023-05-06T16:31:24.762Z,6.75
2023-05-06T16:34:04.491Z,6.10
2023-05-06T16:36:44.640Z,6.60
2023-05-06T16:39:11.667Z,5.95
2023-05-06T16:41:44.630Z,7.82
2023-05-06T16:44:11.618Z,8.75
2023-05-06T16:46:44.797Z,7.78
2023-05-06T16:49:11.707Z,8.55
2023-05-06T16:51:44.635Z,6.88
2023-05-06T16:54:11.403Z,6.40
2023-05-06T16:56:51.867Z,5.72
2023-05-06T16:59:21.621Z,6.97
2023-05-06T17:01:55.644Z,6.50
2023-05-06T17:04:24.836Z,6.20
2023-05-06T17:06:58.578Z,6.47
2023-05-06T17:09:31.581Z,7.25
2023-05-06T17:12:11.574Z,5.72
2023-05-06T17:14:44.801Z,13.25
2023-05-06T17:17:18.566Z,5.72
2023-05-06T17:19:52.678Z,6.15
2023-05-06T17:22:27.703Z,6.03
2023-05-06T17:25:01.809Z,7.07
2023-05-06T17:27:28.670Z,6.07
2023-05-06T17:30:01.707Z,7.80
2023-05-06T17:32:28.521Z,6.18
2023-05-06T17:35:01.648Z,6.13
2023-05-06T17:37:41.632Z,6.25
2023-05-06T17:40:15.652Z,5.88
2023-05-06T17:42:42.526Z,6.70
2023-05-06T17:45:16.764Z,5.65
2023-05-06T17:47:50.684Z,5.63
2023-05-06T17:50:18.390Z,5.57
2023-05-06T17:52:52.726Z,6.28
2023-05-06T17:55:22.126Z,5.80
2023-05-06T17:57:55.594Z,7.13
2023-05-06T18:00:22.378Z,5.60
2023-05-06T18:02:55.697Z,7.47
2023-05-06T18:05:24.961Z,6.30
2023-05-06T18:07:58.745Z,5.35
2023-05-06T18:10:26.017Z,6.10
2023-05-06T18:12:59.671Z,6.88
2023-05-06T18:15:26.626Z,6.03
2023-05-06T18:17:59.693Z,6.65
2023-05-06T18:20:33.634Z,6.55
2023-05-06T18:23:06.707Z,6.57
2023-05-06T18:25:39.652Z,7.45
2023-05-06T18:28:12.612Z,6.82
2023-05-06T18:30:39.535Z,6.78
2023-05-06T18:33:12.743Z,8.02
2023-05-06T18:35:52.777Z,8.07
2023-05-06T18:38:26.602Z,6.85
2023-05-06T18:40:59.667Z,8.57
2023-05-06T18:43:26.488Z,7.07
2023-05-06T18:46:01.759Z,6.95
2023-05-06T18:48:37.697Z,7.53
2023-05-06T18:51:22.107Z,7.22
2023-05-06T18:53:49.107Z,7.35
2023-05-06T18:56:23.987Z,7.18
2023-05-06T18:58:57.783Z,6.88
2023-05-06T19:01:25.328Z,6.25
2023-05-06T19:03:59.742Z,7.47
2023-05-06T19:06:26.858Z,9.18
2023-05-06T19:09:00.794Z,7.65
2023-05-06T19:11:28.010Z,6.97
2023-05-06T19:14:01.681Z,8.10
2023-05-06T19:16:28.685Z,7.32
2023-05-06T19:19:01.763Z,7.22
2023-05-06T19:21:35.662Z,7.22
2023-05-06T19:24:08.844Z,8.10
2023-05-06T19:26:43.053Z,7.45
2023-05-06T19:29:09.811Z,7.00
2023-05-06T19:31:42.950Z,8.48
2023-05-06T19:34:10.016Z,8.00
2023-05-06T19:36:49.695Z,7.47
2023-05-06T19:39:22.851Z,7.30
2023-05-06T19:41:56.673Z,7.70
2023-05-06T19:44:23.519Z,7.70
2023-05-06T19:47:02.792Z,7.72
2023-05-06T19:49:32.475Z,8.02
2023-05-06T19:52:00.217Z,8.23
2023-05-06T19:54:33.739Z,8.35
2023-05-06T19:57:00.815Z,8.60
2023-05-06T19:59:37.342Z,8.68
2023-05-06T20:02:04.153Z,9.25
2023-05-06T20:04:37.791Z,9.30
2023-05-06T20:07:04.842Z,9.00
2023-05-06T20:09:31.667Z,9.38
2023-05-06T20:12:05.785Z,8.98
2023-05-06T20:14:39.888Z,8.43
2023-05-06T20:17:13.866Z,8.85
2023-05-06T20:19:40.941Z,9.07
2023-05-06T20:22:08.500Z,8.18
2023-05-06T20:24:43.885Z,8.88
2023-05-06T20:27:17.818Z,9.95
2023-05-06T20:29:44.652Z,9.05
2023-05-06T20:32:17.680Z,10.80
2023-05-06T20:35:07.785Z,10.45
2023-05-06T20:37:41.822Z,9.50
2023-05-06T20:40:10.133Z,8.23
2023-05-06T20:42:45.817Z,10.00
2023-05-06T20:45:15.098Z,45.30
2023-05-06T20:47:48.776Z,18.63
2023-05-06T20:50:20.407Z,9.70
2023-05-06T20:52:53.769Z,11.00
2023-05-06T20:55:32.049Z,9.93
2023-05-06T20:58:06.808Z,10.75
2023-05-06T21:00:42.900Z,11.10
2023-05-06T21:03:15.922Z,11.32
2023-05-06T21:05:43.027Z,11.45
2023-05-06T21:08:16.858Z,11.50
2023-05-06T21:10:49.765Z,12.05
2023-05-06T21:13:22.739Z,10.95
2023-05-06T21:15:55.798Z,11.77
2023-05-06T21:18:22.774Z,12.18
2023-05-06T21:20:55.725Z,11.38
2023-05-06T21:23:22.724Z,12.30
2023-05-06T21:25:58.580Z,13.30
2023-05-06T21:28:29.918Z,14.38
2023-05-06T21:31:02.884Z,19.05
2023-05-06T21:33:29.737Z,16.52
2023-05-06T21:36:12.786Z,14.10
2023-05-06T21:38:46.853Z,13.45
2023-05-06T21:41:20.819Z,13.27
2023-05-06T21:43:56.784Z,13.40
2023-05-06T21:46:32.878Z,13.65
2023-05-06T21:49:06.863Z,13.98
2023-05-06T21:51:42.754Z,14.77
2023-05-06T21:54:16.804Z,14.07
2023-05-06T21:56:45.850Z,15.15
2023-05-06T21:59:18.720Z,15.27
2023-05-06T22:01:48.218Z,14.60
2023-05-06T22:04:26.818Z,14.30
2023-05-06T22:06:53.748Z,15.40
2023-05-06T22:09:27.859Z,18.63
2023-05-06T22:11:54.820Z,17.38
2023-05-06T22:14:37.374Z,17.40
2023-05-06T22:17:08.336Z,16.23
2023-05-06T22:19:41.947Z,17.23
2023-05-06T22:22:09.567Z,17.63
2023-05-06T22:24:42.931Z,18.35
2023-05-06T22:27:09.959Z,18.05
2023-05-06T22:29:45.889Z,20.08
2023-05-06T22:32:12.869Z,19.70
2023-05-06T22:34:59.778Z,20.10
2023-05-06T22:37:26.712Z,19.67
2023-05-06T22:40:02.857Z,20.38
2023-05-06T22:42:35.957Z,21.95
2023-05-06T22:45:02.918Z,20.73
2023-05-06T22:47:36.863Z,20.83
2023-05-06T22:50:08.934Z,24.73
2023-05-06T22:52:42.857Z,24.83
2023-05-06T22:55:10.337Z,26.08
2023-05-06T22:57:46.881Z,23.88
2023-05-06T23:00:13.984Z,22.45
2023-05-06T23:02:47.875Z,21.75
2023-05-06T23:05:22.177Z,21.90
2023-05-06T23:07:49.308Z,21.23
2023-05-06T23:10:27.907Z,21.58
2023-05-06T23:13:07.747Z,21.02
2023-05-06T23:15:41.939Z,30.85
2023-05-06T23:18:10.278Z,26.05
2023-05-06T23:20:45.869Z,24.25
2023-05-06T23:23:21.878Z,23.27
2023-05-06T23:25:49.017Z,21.15
2023-05-06T23:28:25.837Z,21.70
2023-05-06T23:30:58.920Z,20.98
2023-05-06T23:33:26.151Z,20.45
2023-05-06T23:36:07.955Z,22.77
2023-05-06T23:38:34.873Z,33.60
2023-05-06T23:41:08.039Z,23.88
2023-05-06T23:43:35.120Z,20.42
2023-05-06T23:46:11.997Z,21.05
2023-05-06T23:48:48.833Z,19.88
2023-05-06T23:51:19.008Z,20.05
2023-05-06T23:53:52.902Z,20.88
2023-05-06T23:56:20.857Z,20.65
2023-05-06T23:59:00.665Z,19.80
